Metar Aviation Weather Data EPKT

18°C Temp
17°C Dewpoint
% Humidity
Temperature
8 KM/H
5 MPH
4 KTS
40°
North East

Wind Speed
Clear
Conditions
Pressure 1015.92 (hPa) - 30 (in)
Visibility 5.0 (mi) - 8 (km)

Current Conditions
EPKT
Metar :EPKT 150130Z 04004KT 8000 NSC 18/17 Q1016
Sat 15th June 03:30 am

  Metar Aviation API Data Provided by https://www.checkwx.com/ PHP scripts by weather34.com ©2019